sensor_id;sensor_type;location;lat;lon;timestamp;P1;durP1;ratioP1;P2;durP2;ratioP2
77589;SDS011;66746;51.328;12.332;2023-06-22T00:01:10;10.88;;;8.77;;
77589;SDS011;66746;51.328;12.332;2023-06-22T00:03:36;12.65;;;9.75;;
77589;SDS011;66746;51.328;12.332;2023-06-22T00:06:03;11.65;;;9.65;;
77589;SDS011;66746;51.328;12.332;2023-06-22T00:08:29;12.23;;;9.65;;
77589;SDS011;66746;51.328;12.332;2023-06-22T00:10:57;11.95;;;9.02;;
77589;SDS011;66746;51.328;12.332;2023-06-22T00:13:23;10.38;;;8.27;;
77589;SDS011;66746;51.328;12.332;2023-06-22T00:15:50;11.38;;;9.10;;
77589;SDS011;66746;51.328;12.332;2023-06-22T00:18:16;11.60;;;9.35;;
77589;SDS011;66746;51.328;12.332;2023-06-22T00:20:42;12.30;;;9.70;;
77589;SDS011;66746;51.328;12.332;2023-06-22T00:23:09;11.65;;;9.43;;
77589;SDS011;66746;51.328;12.332;2023-06-22T00:25:36;12.27;;;9.10;;
77589;SDS011;66746;51.328;12.332;2023-06-22T00:28:04;11.90;;;9.57;;
77589;SDS011;66746;51.328;12.332;2023-06-22T00:30:31;13.07;;;10.00;;
77589;SDS011;66746;51.328;12.332;2023-06-22T00:32:58;11.38;;;9.32;;
77589;SDS011;66746;51.328;12.332;2023-06-22T00:35:24;12.48;;;9.82;;
77589;SDS011;66746;51.328;12.332;2023-06-22T00:37:51;12.20;;;9.50;;
77589;SDS011;66746;51.328;12.332;2023-06-22T00:40:19;12.90;;;8.82;;
77589;SDS011;66746;51.328;12.332;2023-06-22T00:42:46;13.35;;;10.07;;
77589;SDS011;66746;51.328;12.332;2023-06-22T00:45:14;13.77;;;10.25;;
77589;SDS011;66746;51.328;12.332;2023-06-22T00:47:42;12.07;;;9.50;;
77589;SDS011;66746;51.328;12.332;2023-06-22T00:50:09;11.82;;;9.85;;
77589;SDS011;66746;51.328;12.332;2023-06-22T00:52:41;12.25;;;9.57;;
77589;SDS011;66746;51.328;12.332;2023-06-22T00:55:09;12.90;;;10.30;;
77589;SDS011;66746;51.328;12.332;2023-06-22T00:57:37;12.15;;;10.35;;
77589;SDS011;66746;51.328;12.332;2023-06-22T01:00:04;11.43;;;9.68;;
77589;SDS011;66746;51.328;12.332;2023-06-22T01:02:33;11.93;;;9.70;;
77589;SDS011;66746;51.328;12.332;2023-06-22T01:05:00;12.65;;;9.65;;
77589;SDS011;66746;51.328;12.332;2023-06-22T01:07:29;12.65;;;10.05;;
77589;SDS011;66746;51.328;12.332;2023-06-22T01:10:03;11.50;;;9.20;;
77589;SDS011;66746;51.328;12.332;2023-06-22T01:12:37;14.48;;;10.02;;
77589;SDS011;66746;51.328;12.332;2023-06-22T01:15:08;11.23;;;9.18;;
77589;SDS011;66746;51.328;12.332;2023-06-22T01:17:40;11.88;;;9.90;;
77589;SDS011;66746;51.328;12.332;2023-06-22T01:20:09;12.55;;;9.73;;
77589;SDS011;66746;51.328;12.332;2023-06-22T01:22:40;13.57;;;11.13;;
77589;SDS011;66746;51.328;12.332;2023-06-22T01:25:19;12.10;;;9.73;;
77589;SDS011;66746;51.328;12.332;2023-06-22T01:27:49;12.43;;;9.02;;
77589;SDS011;66746;51.328;12.332;2023-06-22T01:30:24;13.35;;;10.57;;
77589;SDS011;66746;51.328;12.332;2023-06-22T01:32:53;14.60;;;10.32;;
77589;SDS011;66746;51.328;12.332;2023-06-22T01:35:23;13.10;;;10.35;;
77589;SDS011;66746;51.328;12.332;2023-06-22T01:37:51;14.02;;;11.02;;
77589;SDS011;66746;51.328;12.332;2023-06-22T01:40:17;14.10;;;10.65;;
77589;SDS011;66746;51.328;12.332;2023-06-22T01:42:45;15.63;;;10.90;;
77589;SDS011;66746;51.328;12.332;2023-06-22T01:45:13;13.45;;;10.85;;
77589;SDS011;66746;51.328;12.332;2023-06-22T01:47:42;13.07;;;11.73;;
77589;SDS011;66746;51.328;12.332;2023-06-22T01:50:09;12.98;;;11.10;;
77589;SDS011;66746;51.328;12.332;2023-06-22T01:52:36;13.35;;;10.77;;
77589;SDS011;66746;51.328;12.332;2023-06-22T01:55:02;13.40;;;11.00;;
77589;SDS011;66746;51.328;12.332;2023-06-22T01:57:30;12.63;;;10.40;;
77589;SDS011;66746;51.328;12.332;2023-06-22T01:59:58;15.23;;;12.60;;
77589;SDS011;66746;51.328;12.332;2023-06-22T02:02:54;13.40;;;11.40;;
77589;SDS011;66746;51.328;12.332;2023-06-22T02:05:25;14.15;;;10.82;;
77589;SDS011;66746;51.328;12.332;2023-06-22T02:07:56;13.82;;;10.48;;
77589;SDS011;66746;51.328;12.332;2023-06-22T02:10:30;12.85;;;10.70;;
77589;SDS011;66746;51.328;12.332;2023-06-22T02:12:58;15.77;;;11.13;;
77589;SDS011;66746;51.328;12.332;2023-06-22T02:15:26;13.73;;;11.52;;
77589;SDS011;66746;51.328;12.332;2023-06-22T02:17:55;13.70;;;11.20;;
77589;SDS011;66746;51.328;12.332;2023-06-22T02:20:23;14.15;;;10.48;;
77589;SDS011;66746;51.328;12.332;2023-06-22T02:22:50;13.65;;;10.57;;
77589;SDS011;66746;51.328;12.332;2023-06-22T02:25:16;13.85;;;11.20;;
77589;SDS011;66746;51.328;12.332;2023-06-22T02:27:44;14.43;;;10.90;;
77589;SDS011;66746;51.328;12.332;2023-06-22T02:30:11;16.05;;;10.73;;
77589;SDS011;66746;51.328;12.332;2023-06-22T02:32:38;16.42;;;11.80;;
77589;SDS011;66746;51.328;12.332;2023-06-22T02:35:07;15.35;;;12.05;;
77589;SDS011;66746;51.328;12.332;2023-06-22T02:37:34;15.05;;;11.05;;
77589;SDS011;66746;51.328;12.332;2023-06-22T02:40:01;16.60;;;10.85;;
77589;SDS011;66746;51.328;12.332;2023-06-22T02:42:28;14.48;;;12.13;;
77589;SDS011;66746;51.328;12.332;2023-06-22T02:44:54;14.50;;;11.75;;
77589;SDS011;66746;51.328;12.332;2023-06-22T02:47:21;14.80;;;11.35;;
77589;SDS011;66746;51.328;12.332;2023-06-22T02:49:47;15.95;;;12.00;;
77589;SDS011;66746;51.328;12.332;2023-06-22T02:52:16;14.75;;;11.88;;
77589;SDS011;66746;51.328;12.332;2023-06-22T02:54:43;13.52;;;11.40;;
77589;SDS011;66746;51.328;12.332;2023-06-22T02:57:09;15.90;;;11.88;;
77589;SDS011;66746;51.328;12.332;2023-06-22T02:59:36;15.77;;;12.07;;
77589;SDS011;66746;51.328;12.332;2023-06-22T03:02:08;13.82;;;11.93;;
77589;SDS011;66746;51.328;12.332;2023-06-22T03:04:35;14.50;;;10.57;;
77589;SDS011;66746;51.328;12.332;2023-06-22T03:07:02;17.30;;;11.27;;
77589;SDS011;66746;51.328;12.332;2023-06-22T03:09:32;14.70;;;11.20;;
77589;SDS011;66746;51.328;12.332;2023-06-22T03:11:58;14.85;;;11.52;;
77589;SDS011;66746;51.328;12.332;2023-06-22T03:14:32;14.20;;;11.10;;
77589;SDS011;66746;51.328;12.332;2023-06-22T03:17:00;13.35;;;10.70;;
77589;SDS011;66746;51.328;12.332;2023-06-22T03:19:27;15.23;;;11.85;;
77589;SDS011;66746;51.328;12.332;2023-06-22T03:21:56;15.65;;;12.13;;
77589;SDS011;66746;51.328;12.332;2023-06-22T03:24:24;13.23;;;11.27;;
77589;SDS011;66746;51.328;12.332;2023-06-22T03:26:54;14.48;;;12.15;;
77589;SDS011;66746;51.328;12.332;2023-06-22T03:29:21;14.93;;;11.85;;
77589;SDS011;66746;51.328;12.332;2023-06-22T03:31:48;14.23;;;11.32;;
77589;SDS011;66746;51.328;12.332;2023-06-22T03:34:15;16.23;;;11.30;;
77589;SDS011;66746;51.328;12.332;2023-06-22T03:36:44;15.38;;;11.77;;
77589;SDS011;66746;51.328;12.332;2023-06-22T03:39:11;16.20;;;12.20;;
77589;SDS011;66746;51.328;12.332;2023-06-22T03:41:37;15.10;;;12.18;;
77589;SDS011;66746;51.328;12.332;2023-06-22T03:44:05;15.02;;;11.88;;
77589;SDS011;66746;51.328;12.332;2023-06-22T03:46:35;14.95;;;11.13;;
77589;SDS011;66746;51.328;12.332;2023-06-22T03:49:02;14.55;;;10.90;;
77589;SDS011;66746;51.328;12.332;2023-06-22T03:51:31;15.68;;;12.32;;
77589;SDS011;66746;51.328;12.332;2023-06-22T03:54:00;17.67;;;11.82;;
77589;SDS011;66746;51.328;12.332;2023-06-22T03:56:27;14.85;;;12.45;;
77589;SDS011;66746;51.328;12.332;2023-06-22T03:58:54;16.95;;;12.02;;
77589;SDS011;66746;51.328;12.332;2023-06-22T04:04:25;14.65;;;11.85;;
77589;SDS011;66746;51.328;12.332;2023-06-22T04:06:52;14.82;;;12.10;;
77589;SDS011;66746;51.328;12.332;2023-06-22T04:09:18;14.43;;;12.30;;
77589;SDS011;66746;51.328;12.332;2023-06-22T04:11:45;16.40;;;13.10;;
77589;SDS011;66746;51.328;12.332;2023-06-22T04:14:12;18.67;;;14.32;;
77589;SDS011;66746;51.328;12.332;2023-06-22T04:16:39;17.30;;;12.95;;
77589;SDS011;66746;51.328;12.332;2023-06-22T04:19:06;15.15;;;13.32;;
77589;SDS011;66746;51.328;12.332;2023-06-22T04:21:42;17.45;;;12.30;;
77589;SDS011;66746;51.328;12.332;2023-06-22T04:24:38;19.40;;;14.48;;
77589;SDS011;66746;51.328;12.332;2023-06-22T04:27:05;17.38;;;13.05;;
77589;SDS011;66746;51.328;12.332;2023-06-22T04:29:34;15.45;;;12.65;;
77589;SDS011;66746;51.328;12.332;2023-06-22T04:32:34;17.73;;;13.02;;
77589;SDS011;66746;51.328;12.332;2023-06-22T04:35:36;20.83;;;16.00;;
77589;SDS011;66746;51.328;12.332;2023-06-22T04:41:33;22.13;;;16.38;;
77589;SDS011;66746;51.328;12.332;2023-06-22T04:44:03;19.08;;;15.60;;
77589;SDS011;66746;51.328;12.332;2023-06-22T04:46:41;23.30;;;17.58;;
77589;SDS011;66746;51.328;12.332;2023-06-22T04:49:47;21.20;;;15.57;;
77589;SDS011;66746;51.328;12.332;2023-06-22T04:52:14;20.52;;;14.98;;
77589;SDS011;66746;51.328;12.332;2023-06-22T04:54:40;21.00;;;15.90;;
77589;SDS011;66746;51.328;12.332;2023-06-22T04:57:08;20.83;;;15.55;;
77589;SDS011;66746;51.328;12.332;2023-06-22T05:02:03;22.00;;;17.70;;
77589;SDS011;66746;51.328;12.332;2023-06-22T05:04:30;23.30;;;16.55;;
77589;SDS011;66746;51.328;12.332;2023-06-22T05:07:01;20.52;;;15.60;;
77589;SDS011;66746;51.328;12.332;2023-06-22T05:09:28;27.23;;;16.65;;
77589;SDS011;66746;51.328;12.332;2023-06-22T05:11:57;22.90;;;15.98;;
77589;SDS011;66746;51.328;12.332;2023-06-22T05:14:25;19.70;;;16.55;;
77589;SDS011;66746;51.328;12.332;2023-06-22T05:16:52;20.10;;;15.43;;
77589;SDS011;66746;51.328;12.332;2023-06-22T05:19:18;18.92;;;14.68;;
77589;SDS011;66746;51.328;12.332;2023-06-22T05:21:45;20.95;;;16.60;;
77589;SDS011;66746;51.328;12.332;2023-06-22T05:24:11;20.13;;;14.50;;
77589;SDS011;66746;51.328;12.332;2023-06-22T05:26:38;18.33;;;13.68;;
77589;SDS011;66746;51.328;12.332;2023-06-22T05:29:05;20.38;;;14.75;;
77589;SDS011;66746;51.328;12.332;2023-06-22T05:31:33;19.35;;;14.35;;
77589;SDS011;66746;51.328;12.332;2023-06-22T05:34:00;18.98;;;13.57;;
77589;SDS011;66746;51.328;12.332;2023-06-22T05:36:26;17.80;;;13.80;;
77589;SDS011;66746;51.328;12.332;2023-06-22T05:38:53;16.88;;;14.02;;
77589;SDS011;66746;51.328;12.332;2023-06-22T05:41:22;17.05;;;14.63;;
77589;SDS011;66746;51.328;12.332;2023-06-22T05:43:48;18.77;;;13.73;;
77589;SDS011;66746;51.328;12.332;2023-06-22T05:46:15;18.20;;;13.40;;
77589;SDS011;66746;51.328;12.332;2023-06-22T05:48:43;17.30;;;12.73;;
77589;SDS011;66746;51.328;12.332;2023-06-22T05:51:10;18.65;;;13.02;;
77589;SDS011;66746;51.328;12.332;2023-06-22T05:53:36;15.00;;;11.20;;
77589;SDS011;66746;51.328;12.332;2023-06-22T05:56:03;13.80;;;12.20;;
77589;SDS011;66746;51.328;12.332;2023-06-22T05:58:29;13.02;;;10.23;;
77589;SDS011;66746;51.328;12.332;2023-06-22T06:00:56;14.85;;;11.30;;
77589;SDS011;66746;51.328;12.332;2023-06-22T06:03:23;12.48;;;11.18;;
77589;SDS011;66746;51.328;12.332;2023-06-22T06:05:52;14.32;;;10.88;;
77589;SDS011;66746;51.328;12.332;2023-06-22T06:08:18;15.75;;;9.60;;
77589;SDS011;66746;51.328;12.332;2023-06-22T06:10:45;12.88;;;10.45;;
77589;SDS011;66746;51.328;12.332;2023-06-22T06:13:11;14.63;;;10.57;;
77589;SDS011;66746;51.328;12.332;2023-06-22T06:15:38;13.20;;;11.02;;
77589;SDS011;66746;51.328;12.332;2023-06-22T06:18:04;13.63;;;10.70;;
77589;SDS011;66746;51.328;12.332;2023-06-22T06:20:31;14.30;;;10.55;;
77589;SDS011;66746;51.328;12.332;2023-06-22T06:23:02;12.80;;;10.18;;
77589;SDS011;66746;51.328;12.332;2023-06-22T06:25:29;11.95;;;9.05;;
77589;SDS011;66746;51.328;12.332;2023-06-22T06:27:55;13.85;;;10.32;;
77589;SDS011;66746;51.328;12.332;2023-06-22T06:30:22;13.13;;;10.73;;
77589;SDS011;66746;51.328;12.332;2023-06-22T06:32:50;15.63;;;11.23;;
77589;SDS011;66746;51.328;12.332;2023-06-22T06:35:17;15.00;;;10.02;;
77589;SDS011;66746;51.328;12.332;2023-06-22T06:37:45;13.25;;;10.50;;
77589;SDS011;66746;51.328;12.332;2023-06-22T06:40:15;14.95;;;10.57;;
77589;SDS011;66746;51.328;12.332;2023-06-22T06:42:43;14.73;;;9.82;;
77589;SDS011;66746;51.328;12.332;2023-06-22T06:45:10;12.80;;;10.32;;
77589;SDS011;66746;51.328;12.332;2023-06-22T06:47:38;13.95;;;10.23;;
77589;SDS011;66746;51.328;12.332;2023-06-22T06:50:05;11.40;;;9.60;;
77589;SDS011;66746;51.328;12.332;2023-06-22T06:52:32;11.57;;;9.30;;
77589;SDS011;66746;51.328;12.332;2023-06-22T06:55:01;12.02;;;10.05;;
77589;SDS011;66746;51.328;12.332;2023-06-22T06:57:30;14.05;;;10.00;;
77589;SDS011;66746;51.328;12.332;2023-06-22T06:59:56;11.70;;;10.35;;
77589;SDS011;66746;51.328;12.332;2023-06-22T07:02:24;14.60;;;10.38;;
77589;SDS011;66746;51.328;12.332;2023-06-22T07:04:52;12.73;;;10.32;;
77589;SDS011;66746;51.328;12.332;2023-06-22T07:07:18;10.73;;;8.43;;
77589;SDS011;66746;51.328;12.332;2023-06-22T07:09:44;11.82;;;9.25;;
77589;SDS011;66746;51.328;12.332;2023-06-22T07:12:12;11.43;;;9.63;;
77589;SDS011;66746;51.328;12.332;2023-06-22T07:14:40;11.18;;;9.60;;
77589;SDS011;66746;51.328;12.332;2023-06-22T07:17:06;11.68;;;8.75;;
77589;SDS011;66746;51.328;12.332;2023-06-22T07:19:33;11.65;;;10.30;;
77589;SDS011;66746;51.328;12.332;2023-06-22T07:21:59;11.32;;;9.77;;
77589;SDS011;66746;51.328;12.332;2023-06-22T07:24:26;15.10;;;9.30;;
77589;SDS011;66746;51.328;12.332;2023-06-22T07:26:53;11.07;;;8.75;;
77589;SDS011;66746;51.328;12.332;2023-06-22T07:29:20;12.25;;;8.93;;
77589;SDS011;66746;51.328;12.332;2023-06-22T07:31:49;11.45;;;9.05;;
77589;SDS011;66746;51.328;12.332;2023-06-22T07:34:16;13.10;;;9.68;;
77589;SDS011;66746;51.328;12.332;2023-06-22T07:36:43;11.70;;;8.70;;
77589;SDS011;66746;51.328;12.332;2023-06-22T07:39:09;11.60;;;9.00;;
77589;SDS011;66746;51.328;12.332;2023-06-22T07:41:36;11.25;;;8.55;;
77589;SDS011;66746;51.328;12.332;2023-06-22T07:44:02;9.77;;;8.25;;
77589;SDS011;66746;51.328;12.332;2023-06-22T07:46:29;12.82;;;9.90;;
77589;SDS011;66746;51.328;12.332;2023-06-22T07:48:57;10.38;;;8.88;;
77589;SDS011;66746;51.328;12.332;2023-06-22T07:51:24;10.73;;;8.75;;
77589;SDS011;66746;51.328;12.332;2023-06-22T07:53:51;11.27;;;9.38;;
77589;SDS011;66746;51.328;12.332;2023-06-22T07:56:18;9.52;;;7.63;;
77589;SDS011;66746;51.328;12.332;2023-06-22T07:58:44;11.07;;;8.10;;
77589;SDS011;66746;51.328;12.332;2023-06-22T08:01:11;9.50;;;7.90;;
77589;SDS011;66746;51.328;12.332;2023-06-22T08:03:38;10.73;;;8.85;;
77589;SDS011;66746;51.328;12.332;2023-06-22T08:06:06;11.30;;;8.93;;
77589;SDS011;66746;51.328;12.332;2023-06-22T08:08:33;10.82;;;9.48;;
77589;SDS011;66746;51.328;12.332;2023-06-22T08:10:59;10.13;;;9.13;;
77589;SDS011;66746;51.328;12.332;2023-06-22T08:13:26;9.25;;;8.23;;
77589;SDS011;66746;51.328;12.332;2023-06-22T08:15:53;9.32;;;8.23;;
77589;SDS011;66746;51.328;12.332;2023-06-22T08:18:20;9.27;;;8.05;;
77589;SDS011;66746;51.328;12.332;2023-06-22T08:20:47;9.68;;;7.68;;
77589;SDS011;66746;51.328;12.332;2023-06-22T08:23:15;12.00;;;8.30;;
77589;SDS011;66746;51.328;12.332;2023-06-22T08:25:41;10.38;;;9.10;;
77589;SDS011;66746;51.328;12.332;2023-06-22T08:28:08;9.13;;;8.20;;
77589;SDS011;66746;51.328;12.332;2023-06-22T08:30:34;9.13;;;7.50;;
77589;SDS011;66746;51.328;12.332;2023-06-22T08:33:01;9.10;;;8.20;;
77589;SDS011;66746;51.328;12.332;2023-06-22T08:35:30;8.63;;;7.75;;
77589;SDS011;66746;51.328;12.332;2023-06-22T08:37:57;9.05;;;8.02;;
77589;SDS011;66746;51.328;12.332;2023-06-22T08:40:25;9.32;;;7.95;;
77589;SDS011;66746;51.328;12.332;2023-06-22T08:42:52;10.98;;;8.55;;
77589;SDS011;66746;51.328;12.332;2023-06-22T08:45:37;10.10;;;7.85;;
77589;SDS011;66746;51.328;12.332;2023-06-22T08:48:04;10.60;;;8.63;;
77589;SDS011;66746;51.328;12.332;2023-06-22T08:50:31;11.07;;;8.55;;
77589;SDS011;66746;51.328;12.332;2023-06-22T08:52:57;10.73;;;8.95;;
77589;SDS011;66746;51.328;12.332;2023-06-22T08:55:25;8.85;;;7.57;;
77589;SDS011;66746;51.328;12.332;2023-06-22T08:57:53;10.30;;;8.23;;
77589;SDS011;66746;51.328;12.332;2023-06-22T09:00:20;9.27;;;7.30;;
77589;SDS011;66746;51.328;12.332;2023-06-22T09:02:47;9.60;;;8.60;;
77589;SDS011;66746;51.328;12.332;2023-06-22T09:05:14;8.25;;;7.28;;
77589;SDS011;66746;51.328;12.332;2023-06-22T09:07:41;11.10;;;7.25;;
77589;SDS011;66746;51.328;12.332;2023-06-22T09:10:08;9.43;;;7.57;;
77589;SDS011;66746;51.328;12.332;2023-06-22T09:12:35;11.90;;;8.82;;
77589;SDS011;66746;51.328;12.332;2023-06-22T09:15:02;8.68;;;6.60;;
77589;SDS011;66746;51.328;12.332;2023-06-22T09:17:32;8.82;;;6.95;;
77589;SDS011;66746;51.328;12.332;2023-06-22T09:19:59;7.93;;;7.13;;
77589;SDS011;66746;51.328;12.332;2023-06-22T09:22:27;7.40;;;6.63;;
77589;SDS011;66746;51.328;12.332;2023-06-22T09:24:54;7.70;;;6.90;;
77589;SDS011;66746;51.328;12.332;2023-06-22T09:27:21;8.70;;;5.97;;
77589;SDS011;66746;51.328;12.332;2023-06-22T09:29:49;7.97;;;6.63;;
77589;SDS011;66746;51.328;12.332;2023-06-22T09:34:43;8.07;;;5.93;;
77589;SDS011;66746;51.328;12.332;2023-06-22T09:37:10;6.47;;;5.88;;
77589;SDS011;66746;51.328;12.332;2023-06-22T09:39:36;6.35;;;5.72;;
77589;SDS011;66746;51.328;12.332;2023-06-22T09:42:03;8.40;;;6.10;;
77589;SDS011;66746;51.328;12.332;2023-06-22T09:44:30;8.45;;;7.32;;
77589;SDS011;66746;51.328;12.332;2023-06-22T09:46:57;7.13;;;5.85;;
77589;SDS011;66746;51.328;12.332;2023-06-22T09:49:24;6.95;;;5.57;;
77589;SDS011;66746;51.328;12.332;2023-06-22T09:52:10;9.10;;;6.30;;
77589;SDS011;66746;51.328;12.332;2023-06-22T09:54:39;8.40;;;6.05;;
77589;SDS011;66746;51.328;12.332;2023-06-22T09:59:33;7.63;;;6.43;;
77589;SDS011;66746;51.328;12.332;2023-06-22T10:02:01;11.60;;;5.50;;
77589;SDS011;66746;51.328;12.332;2023-06-22T10:04:27;6.38;;;5.05;;
77589;SDS011;66746;51.328;12.332;2023-06-22T10:06:54;7.45;;;6.32;;
77589;SDS011;66746;51.328;12.332;2023-06-22T10:09:21;6.63;;;5.60;;
77589;SDS011;66746;51.328;12.332;2023-06-22T10:11:47;6.18;;;5.57;;
77589;SDS011;66746;51.328;12.332;2023-06-22T10:14:14;5.63;;;5.13;;
77589;SDS011;66746;51.328;12.332;2023-06-22T10:16:40;6.57;;;5.30;;
77589;SDS011;66746;51.328;12.332;2023-06-22T10:19:09;6.75;;;5.68;;
77589;SDS011;66746;51.328;12.332;2023-06-22T10:21:35;5.80;;;4.80;;
77589;SDS011;66746;51.328;12.332;2023-06-22T10:24:02;6.68;;;5.95;;
77589;SDS011;66746;51.328;12.332;2023-06-22T10:26:29;6.00;;;5.18;;
77589;SDS011;66746;51.328;12.332;2023-06-22T10:28:56;6.47;;;5.32;;
77589;SDS011;66746;51.328;12.332;2023-06-22T10:31:41;6.50;;;5.43;;
77589;SDS011;66746;51.328;12.332;2023-06-22T10:34:09;6.13;;;5.53;;
77589;SDS011;66746;51.328;12.332;2023-06-22T10:36:36;8.20;;;6.07;;
77589;SDS011;66746;51.328;12.332;2023-06-22T10:39:04;6.70;;;5.05;;
77589;SDS011;66746;51.328;12.332;2023-06-22T10:41:31;7.50;;;5.10;;
77589;SDS011;66746;51.328;12.332;2023-06-22T10:43:57;7.00;;;5.95;;
77589;SDS011;66746;51.328;12.332;2023-06-22T10:46:24;8.32;;;5.38;;
77589;SDS011;66746;51.328;12.332;2023-06-22T10:48:51;5.95;;;5.25;;
77589;SDS011;66746;51.328;12.332;2023-06-22T10:51:19;6.05;;;5.45;;
77589;SDS011;66746;51.328;12.332;2023-06-22T10:53:46;6.50;;;5.60;;
77589;SDS011;66746;51.328;12.332;2023-06-22T10:56:15;6.53;;;5.65;;
77589;SDS011;66746;51.328;12.332;2023-06-22T10:58:42;6.93;;;5.50;;
77589;SDS011;66746;51.328;12.332;2023-06-22T11:01:09;6.63;;;5.78;;
77589;SDS011;66746;51.328;12.332;2023-06-22T11:03:55;6.70;;;5.30;;
77589;SDS011;66746;51.328;12.332;2023-06-22T11:06:23;7.03;;;5.78;;
77589;SDS011;66746;51.328;12.332;2023-06-22T11:08:50;5.90;;;5.25;;
77589;SDS011;66746;51.328;12.332;2023-06-22T11:13:58;5.75;;;5.05;;
77589;SDS011;66746;51.328;12.332;2023-06-22T11:16:27;6.65;;;5.03;;
77589;SDS011;66746;51.328;12.332;2023-06-22T11:18:55;7.53;;;5.55;;
77589;SDS011;66746;51.328;12.332;2023-06-22T11:21:21;7.32;;;6.47;;
77589;SDS011;66746;51.328;12.332;2023-06-22T11:23:49;6.85;;;5.38;;
77589;SDS011;66746;51.328;12.332;2023-06-22T11:26:16;6.20;;;5.53;;
77589;SDS011;66746;51.328;12.332;2023-06-22T11:28:45;7.53;;;6.25;;
77589;SDS011;66746;51.328;12.332;2023-06-22T11:31:12;7.03;;;6.28;;
77589;SDS011;66746;51.328;12.332;2023-06-22T11:33:54;7.10;;;5.85;;
77589;SDS011;66746;51.328;12.332;2023-06-22T11:36:20;7.45;;;6.10;;
77589;SDS011;66746;51.328;12.332;2023-06-22T11:38:47;7.55;;;6.10;;
77589;SDS011;66746;51.328;12.332;2023-06-22T11:41:15;31.95;;;24.63;;
77589;SDS011;66746;51.328;12.332;2023-06-22T11:43:41;11.20;;;7.18;;
77589;SDS011;66746;51.328;12.332;2023-06-22T11:46:08;7.63;;;6.28;;
77589;SDS011;66746;51.328;12.332;2023-06-22T11:48:34;6.93;;;6.22;;
77589;SDS011;66746;51.328;12.332;2023-06-22T11:51:01;7.00;;;5.32;;
77589;SDS011;66746;51.328;12.332;2023-06-22T11:53:27;6.38;;;5.53;;
77589;SDS011;66746;51.328;12.332;2023-06-22T11:55:54;6.90;;;6.20;;
77589;SDS011;66746;51.328;12.332;2023-06-22T11:58:22;7.15;;;5.47;;
77589;SDS011;66746;51.328;12.332;2023-06-22T12:01:08;6.47;;;5.88;;
77589;SDS011;66746;51.328;12.332;2023-06-22T12:06:45;7.28;;;6.53;;
77589;SDS011;66746;51.328;12.332;2023-06-22T12:09:12;8.18;;;6.63;;
77589;SDS011;66746;51.328;12.332;2023-06-22T12:11:38;7.47;;;5.93;;
77589;SDS011;66746;51.328;12.332;2023-06-22T12:14:06;8.27;;;5.93;;
77589;SDS011;66746;51.328;12.332;2023-06-22T12:16:33;6.90;;;6.18;;
77589;SDS011;66746;51.328;12.332;2023-06-22T12:18:59;7.00;;;5.95;;
77589;SDS011;66746;51.328;12.332;2023-06-22T12:21:26;6.43;;;5.68;;
77589;SDS011;66746;51.328;12.332;2023-06-22T12:23:52;6.72;;;5.90;;
77589;SDS011;66746;51.328;12.332;2023-06-22T12:26:18;8.45;;;6.15;;
77589;SDS011;66746;51.328;12.332;2023-06-22T12:28:45;7.28;;;6.57;;
77589;SDS011;66746;51.328;12.332;2023-06-22T12:31:13;7.03;;;5.97;;
77589;SDS011;66746;51.328;12.332;2023-06-22T12:33:40;9.63;;;6.35;;
77589;SDS011;66746;51.328;12.332;2023-06-22T12:36:08;8.07;;;6.32;;
77589;SDS011;66746;51.328;12.332;2023-06-22T12:38:34;7.32;;;6.32;;
77589;SDS011;66746;51.328;12.332;2023-06-22T12:41:00;6.05;;;5.40;;
77589;SDS011;66746;51.328;12.332;2023-06-22T12:43:27;6.43;;;5.80;;
77589;SDS011;66746;51.328;12.332;2023-06-22T12:45:53;10.30;;;6.25;;
77589;SDS011;66746;51.328;12.332;2023-06-22T12:48:22;7.70;;;5.55;;
77589;SDS011;66746;51.328;12.332;2023-06-22T12:50:49;7.20;;;6.32;;
77589;SDS011;66746;51.328;12.332;2023-06-22T12:53:15;7.05;;;6.00;;
77589;SDS011;66746;51.328;12.332;2023-06-22T12:55:42;7.80;;;6.70;;
77589;SDS011;66746;51.328;12.332;2023-06-22T12:58:08;6.82;;;6.05;;
77589;SDS011;66746;51.328;12.332;2023-06-22T13:00:35;7.05;;;5.80;;
77589;SDS011;66746;51.328;12.332;2023-06-22T13:03:02;7.38;;;5.72;;
77589;SDS011;66746;51.328;12.332;2023-06-22T13:05:35;8.18;;;6.45;;
77589;SDS011;66746;51.328;12.332;2023-06-22T13:08:01;7.25;;;6.35;;
77589;SDS011;66746;51.328;12.332;2023-06-22T13:10:29;6.70;;;6.07;;
77589;SDS011;66746;51.328;12.332;2023-06-22T13:12:56;8.05;;;7.13;;
77589;SDS011;66746;51.328;12.332;2023-06-22T13:15:23;8.52;;;6.20;;
77589;SDS011;66746;51.328;12.332;2023-06-22T13:17:50;8.20;;;6.53;;
77589;SDS011;66746;51.328;12.332;2023-06-22T13:20:17;8.15;;;6.43;;
77589;SDS011;66746;51.328;12.332;2023-06-22T13:22:44;7.07;;;6.00;;
77589;SDS011;66746;51.328;12.332;2023-06-22T13:25:11;9.05;;;6.93;;
77589;SDS011;66746;51.328;12.332;2023-06-22T13:27:37;7.57;;;6.63;;
77589;SDS011;66746;51.328;12.332;2023-06-22T13:30:04;7.70;;;6.43;;
77589;SDS011;66746;51.328;12.332;2023-06-22T13:32:32;7.00;;;6.10;;
77589;SDS011;66746;51.328;12.332;2023-06-22T13:34:58;9.98;;;6.55;;
77589;SDS011;66746;51.328;12.332;2023-06-22T13:37:25;8.88;;;6.43;;
77589;SDS011;66746;51.328;12.332;2023-06-22T13:39:53;7.70;;;6.28;;
77589;SDS011;66746;51.328;12.332;2023-06-22T13:42:19;6.97;;;6.07;;
77589;SDS011;66746;51.328;12.332;2023-06-22T13:44:46;9.18;;;6.70;;
77589;SDS011;66746;51.328;12.332;2023-06-22T13:47:12;10.73;;;7.70;;
77589;SDS011;66746;51.328;12.332;2023-06-22T13:49:39;8.00;;;6.63;;
77589;SDS011;66746;51.328;12.332;2023-06-22T13:52:06;7.63;;;6.82;;
77589;SDS011;66746;51.328;12.332;2023-06-22T13:54:32;9.95;;;7.05;;
77589;SDS011;66746;51.328;12.332;2023-06-22T13:57:18;7.85;;;6.32;;
77589;SDS011;66746;51.328;12.332;2023-06-22T13:59:45;9.18;;;6.88;;
77589;SDS011;66746;51.328;12.332;2023-06-22T14:02:12;12.27;;;7.65;;
77589;SDS011;66746;51.328;12.332;2023-06-22T14:04:38;8.57;;;7.20;;
77589;SDS011;66746;51.328;12.332;2023-06-22T14:07:05;6.75;;;6.05;;
77589;SDS011;66746;51.328;12.332;2023-06-22T14:09:32;8.32;;;6.55;;
77589;SDS011;66746;51.328;12.332;2023-06-22T14:12:02;10.32;;;7.05;;
77589;SDS011;66746;51.328;12.332;2023-06-22T14:14:30;7.78;;;7.00;;
77589;SDS011;66746;51.328;12.332;2023-06-22T14:16:57;8.35;;;6.70;;
77589;SDS011;66746;51.328;12.332;2023-06-22T14:19:23;8.68;;;6.75;;
77589;SDS011;66746;51.328;12.332;2023-06-22T14:21:50;7.55;;;6.70;;
77589;SDS011;66746;51.328;12.332;2023-06-22T14:24:16;8.10;;;7.15;;
77589;SDS011;66746;51.328;12.332;2023-06-22T14:26:43;8.55;;;7.07;;
77589;SDS011;66746;51.328;12.332;2023-06-22T14:29:09;7.85;;;6.72;;
77589;SDS011;66746;51.328;12.332;2023-06-22T14:31:37;10.35;;;7.43;;
77589;SDS011;66746;51.328;12.332;2023-06-22T14:34:04;7.13;;;6.22;;
77589;SDS011;66746;51.328;12.332;2023-06-22T14:36:30;7.57;;;6.63;;
77589;SDS011;66746;51.328;12.332;2023-06-22T14:38:57;7.70;;;6.82;;
77589;SDS011;66746;51.328;12.332;2023-06-22T14:41:23;7.43;;;6.68;;
77589;SDS011;66746;51.328;12.332;2023-06-22T14:43:50;10.70;;;7.10;;
77589;SDS011;66746;51.328;12.332;2023-06-22T14:46:17;7.85;;;6.90;;